Time;durP1;ratioP1;P1;durP2;ratioP2;P2;SDS_P1;SDS_P2;PMS_P1;PMS_P2;Temp;Humidity;BMP_temperature;BMP_pressure;BME280_temperature;BME280_humidity;BME280_pressure;Samples;Min_cycle;Max_cycle;Signal;HPM_P1;HPM_P2
2024/02/20 00:00:21;;;;;;;3.40;3.00;;;;;;;5.27;46.60;100483.81;105195;1255;61528;-60
2024/02/20 00:03:39;;;;;;;5.00;3.10;;;;;;;5.33;46.52;100493.50;105076;1253;60474;-59
2024/02/20 00:06:59;;;;;;;4.20;3.10;;;;;;;5.30;46.14;100490.21;104330;1263;73745;-59
2024/02/20 00:10:17;;;;;;;5.90;3.60;;;;;;;5.18;46.47;100472.75;104349;1260;69347;-58
2024/02/20 00:13:36;;;;;;;3.80;3.00;;;;;;;5.32;46.21;100481.69;106009;1253;72840;-61
2024/02/20 00:16:54;;;;;;;3.60;2.70;;;;;;;5.42;46.09;100490.46;105044;1254;60952;-59
2024/02/20 00:20:13;;;;;;;3.70;2.90;;;;;;;5.37;46.24;100480.26;104617;1253;60777;-60
2024/02/20 00:23:31;;;;;;;3.00;2.70;;;;;;;5.26;46.44;100475.29;104458;1258;73578;-60
2024/02/20 00:26:50;;;;;;;3.00;2.40;;;;;;;5.26;46.61;100477.56;104172;1260;68650;-59
2024/02/20 00:30:10;;;;;;;3.40;3.10;;;;;;;5.20;46.64;100473.98;104721;1257;72594;-60
2024/02/20 00:33:29;;;;;;;3.50;2.80;;;;;;;5.15;46.68;100472.78;105036;1257;60738;-60
2024/02/20 00:36:47;;;;;;;5.20;3.70;;;;;;;5.13;46.79;100470.17;104563;1254;60671;-59
2024/02/20 00:40:06;;;;;;;3.60;2.80;;;;;;;5.14;46.96;100468.45;104504;1254;72880;-60
2024/02/20 00:42:34;;;;;;;3.80;3.10;;;;;;;5.06;47.08;100454.94;105162;1254;70256;-59
2024/02/20 00:45:54;;;;;;;3.60;2.90;;;;;;;5.03;47.06;100449.40;104401;1254;71580;-61
2024/02/20 00:49:13;;;;;;;4.70;3.10;;;;;;;5.04;47.06;100450.44;104970;1256;60527;-59
2024/02/20 00:52:32;;;;;;;3.70;2.60;;;;;;;5.03;47.18;100449.23;105109;1255;60537;-59
2024/02/20 00:55:13;;;;;;;3.70;3.30;;;;;;;5.02;47.34;100451.66;104661;1256;72837;-60
2024/02/20 00:58:32;;;;;;;6.30;3.00;;;;;;;5.02;47.22;100451.50;105768;1253;69134;-60
2024/02/20 01:01:51;;;;;;;3.50;2.80;;;;;;;4.98;47.22;100450.48;104365;1260;72925;-60
2024/02/20 01:05:09;;;;;;;3.90;2.50;;;;;;;4.94;47.65;100447.90;104416;1254;62583;-60
2024/02/20 01:08:10;;;;;;;3.80;3.10;;;;;;;4.90;47.58;100437.51;104910;1260;60512;-60
2024/02/20 01:11:30;;;;;;;4.00;2.80;;;;;;;4.92;47.11;100438.54;104483;1259;74618;-60
2024/02/20 01:14:49;;;;;;;3.80;2.70;;;;;;;4.95;46.90;100435.73;104387;1254;68757;-59
2024/02/20 01:18:07;;;;;;;4.70;3.10;;;;;;;4.83;47.29;100434.09;104444;1273;72923;-60
2024/02/20 01:21:00;;;;;;;4.30;3.30;;;;;;;4.74;47.87;100432.73;104443;1254;62475;-60
2024/02/20 01:24:23;;;;;;;3.40;2.70;;;;;;;4.81;47.59;100431.32;104606;1253;60441;-60
2024/02/20 01:27:42;;;;;;;4.30;2.90;;;;;;;4.84;47.50;100429.02;105066;1255;73986;-62
2024/02/20 01:31:00;;;;;;;3.40;3.10;;;;;;;5.07;47.38;100428.52;104374;1263;69175;-60
2024/02/20 01:34:18;;;;;;;3.40;2.90;;;;;;;4.82;47.73;100414.27;104483;1272;73450;-60
2024/02/20 01:37:37;;;;;;;3.60;3.10;;;;;;;4.64;48.42;100416.15;104813;1257;61423;-60
2024/02/20 01:40:56;;;;;;;4.70;3.30;;;;;;;4.71;48.67;100414.35;104856;1253;60442;-60
2024/02/20 01:43:24;;;;;;;4.60;2.70;;;;;;;4.72;48.67;100410.53;104294;1259;73655;-59
2024/02/20 01:46:42;;;;;;;3.20;2.80;;;;;;;4.72;48.57;100416.60;104531;1256;70140;-59
2024/02/20 01:50:01;;;;;;;4.10;2.90;;;;;;;4.73;48.61;100415.39;104926;1259;72547;-60
2024/02/20 01:53:19;;;;;;;3.70;2.80;;;;;;;4.70;48.80;100411.59;108162;1253;61788;-60
2024/02/20 01:56:00;;;;;;;3.40;2.90;;;;;;;4.71;49.19;100404.46;108163;1254;60082;-60
2024/02/20 01:59:18;;;;;;;5.60;3.20;;;;;;;4.72;49.20;100393.33;107619;1256;74740;-60
2024/02/20 02:02:36;;;;;;;3.90;3.30;;;;;;;4.78;49.50;100394.86;107807;1256;69063;-60
2024/02/20 02:05:54;;;;;;;4.20;3.00;;;;;;;4.76;49.13;100401.13;107830;1255;72365;-60
2024/02/20 02:09:12;;;;;;;3.90;3.20;;;;;;;4.74;49.47;100409.83;107824;1257;61618;-60
2024/02/20 02:12:30;;;;;;;3.60;3.20;;;;;;;4.78;49.63;100403.88;107743;1256;60084;-60
2024/02/20 02:15:50;;;;;;;4.40;3.40;;;;;;;4.80;49.79;100393.63;107820;1256;75131;-60
2024/02/20 02:18:27;;;;;;;3.40;3.10;;;;;;;4.82;49.55;100391.53;107805;1256;69664;-60
2024/02/20 02:20:56;;;;;;;7.20;3.80;;;;;;;4.84;49.52;100390.82;107877;1254;72494;-60
2024/02/20 02:23:24;;;;;;;3.70;3.40;;;;;;;4.82;49.88;100392.73;107649;1258;61198;-60
2024/02/20 02:25:58;;;;;;;4.40;4.00;;;;;;;4.85;49.86;100390.29;107797;1256;60582;-60
2024/02/20 02:29:17;;;;;;;4.30;3.90;;;;;;;4.80;49.86;100396.05;107809;1256;74409;-60
2024/02/20 02:32:35;;;;;;;4.70;3.80;;;;;;;4.88;50.18;100392.70;107643;1256;69673;-60
2024/02/20 02:35:53;;;;;;;4.90;3.80;;;;;;;4.97;49.82;100387.05;107751;1255;72915;-60
2024/02/20 02:39:11;;;;;;;4.30;3.40;;;;;;;5.05;49.84;100384.39;107988;1256;60626;-60
2024/02/20 02:42:29;;;;;;;4.10;3.60;;;;;;;5.09;49.87;100380.20;107891;1256;60964;-60
2024/02/20 02:45:47;;;;;;;4.30;3.70;;;;;;;5.13;49.73;100374.08;107818;1255;72450;-60
2024/02/20 02:49:07;;;;;;;3.90;3.50;;;;;;;5.10;49.61;100365.93;108032;1256;69836;-61
2024/02/20 02:52:25;;;;;;;5.30;3.40;;;;;;;5.07;49.81;100365.26;107864;1256;71690;-59
2024/02/20 02:55:43;;;;;;;5.00;3.50;;;;;;;5.15;49.72;100363.46;107833;1256;60691;-60
2024/02/20 02:59:01;;;;;;;7.50;3.90;;;;;;;5.22;49.52;100358.87;108211;1254;59767;-59
2024/02/20 03:09:18;;;;;;;4.60;3.80;;;;;;;5.51;48.88;100355.45;102142;1291;63788;-59
2024/02/20 03:12:42;;;;;;;5.00;4.00;;;;;;;5.46;48.44;100353.95;103681;1266;59878;-60
2024/02/20 03:15:41;;;;;;;4.00;3.50;;;;;;;5.43;48.46;100351.35;104202;1265;73068;-59
2024/02/20 03:18:22;;;;;;;5.10;3.80;;;;;;;5.37;48.69;100357.67;102961;1270;769687;-60
2024/02/20 03:21:02;;;;;;;6.20;3.50;;;;;;;5.41;48.70;100356.77;104391;1267;73032;-59
2024/02/20 03:24:20;;;;;;;4.90;3.40;;;;;;;5.36;48.72;100358.04;103960;1280;60859;-60
2024/02/20 03:27:01;;;;;;;3.90;3.50;;;;;;;5.38;48.59;100356.27;104575;1263;59702;-60
2024/02/20 03:30:19;;;;;;;4.10;3.70;;;;;;;5.34;48.67;100357.20;103960;1264;72634;-60
2024/02/20 03:32:59;;;;;;;4.60;3.50;;;;;;;5.33;49.03;100355.11;104161;1264;70213;-60
2024/02/20 03:36:02;;;;;;;4.90;3.60;;;;;;;5.35;48.66;100359.78;104644;1263;72343;-60
2024/02/20 03:38:40;;;;;;;3.60;3.20;;;;;;;5.34;48.73;100364.83;104372;1266;61636;-59
2024/02/20 03:41:19;;;;;;;5.30;3.50;;;;;;;5.32;48.69;100367.48;104228;1265;59844;-60
2024/02/20 03:44:39;;;;;;;4.20;3.40;;;;;;;5.33;48.44;100367.98;104020;1280;73528;-60
2024/02/20 03:47:19;;;;;;;4.50;3.20;;;;;;;5.39;48.82;100362.52;104281;1266;70229;-60
2024/02/20 03:50:36;;;;;;;4.50;3.60;;;;;;;5.42;48.39;100355.73;103905;1263;72992;-60
2024/02/20 04:03:09;;;;;;;4.00;3.20;;;;;;;5.32;48.50;100341.39;104847;1263;71693;-59
2024/02/20 04:06:35;;;;;;;4.30;3.20;;;;;;;5.37;48.33;100340.30;103983;1263;70318;-60
2024/02/20 04:09:54;;;;;;;3.30;3.00;;;;;;;5.43;48.05;100342.48;104391;1267;73114;-59
2024/02/20 04:13:11;;;;;;;3.70;3.30;;;;;;;5.41;48.08;100340.59;103779;1285;60757;-58
2024/02/20 04:15:57;;;;;;;3.40;3.10;;;;;;;5.45;48.08;100337.95;104515;1263;61496;-58
2024/02/20 04:19:20;;;;;;;4.30;3.00;;;;;;;5.43;48.35;100335.54;103855;1264;73407;-59
2024/02/20 04:22:40;;;;;;;3.50;3.10;;;;;;;5.50;48.27;100330.94;104135;1264;69133;-59
2024/02/20 04:25:20;;;;;;;3.60;3.30;;;;;;;5.57;47.97;100332.95;104239;1265;72997;-58
2024/02/20 04:27:50;;;;;;;5.00;3.00;;;;;;;5.59;47.93;100333.62;104506;1264;60159;-59
2024/02/20 04:30:17;;;;;;;3.90;3.20;;;;;;;5.54;47.94;100334.20;103886;1264;61168;-59
2024/02/20 04:33:00;;;;;;;3.80;3.20;;;;;;;5.51;48.18;100334.75;103986;1269;72817;-60
2024/02/20 04:35:59;;;;;;;5.00;3.10;;;;;;;5.61;47.92;100331.34;104390;1263;70066;-60
2024/02/20 04:39:23;;;;;;;4.00;3.60;;;;;;;5.60;47.86;100330.48;104243;1263;72977;-65
2024/02/20 04:45:59;;;;;;;3.60;3.30;;;;;;;5.66;48.08;100327.98;103986;1269;59932;-61
2024/02/20 04:48:51;;;;;;;4.70;3.20;;;;;;;5.73;47.82;100331.38;103832;1266;73451;-61
2024/02/20 04:51:18;;;;;;;3.50;3.00;;;;;;;5.72;47.88;100334.52;104436;1263;69292;-60
2024/02/20 04:54:35;;;;;;;5.90;3.40;;;;;;;5.69;48.21;100335.77;104696;1264;72337;-61
2024/02/20 04:58:00;;;;;;;3.40;2.70;;;;;;;5.68;48.01;100339.45;103870;1267;60603;-61
2024/02/20 05:06:11;;;;;;;3.00;2.80;;;;;;;5.50;48.65;100338.25;103777;1270;76081;-60
2024/02/20 05:09:30;;;;;;;3.30;3.00;;;;;;;4.88;49.94;100334.66;104020;1268;70150;-61
2024/02/20 05:11:58;;;;;;;4.80;2.70;;;;;;;4.91;50.40;100334.66;104418;1264;73075;-59
2024/02/20 05:15:22;;;;;;;3.40;3.00;;;;;;;4.95;50.06;100332.70;103826;1264;61170;-58
2024/02/20 05:18:40;;;;;;;3.50;3.00;;;;;;;4.84;50.22;100334.89;104936;1260;59624;-60
2024/02/20 05:21:58;;;;;;;3.00;2.60;;;;;;;4.69;51.01;100332.75;104375;1260;73868;-59
2024/02/20 05:24:44;;;;;;;2.90;2.60;;;;;;;4.88;50.51;100335.36;104469;1255;69213;-59
2024/02/20 05:28:08;;;;;;;3.40;3.00;;;;;;;4.96;50.44;100331.83;104252;1267;71926;-60
2024/02/20 05:31:32;;;;;;;4.20;3.30;;;;;;;4.99;50.21;100332.85;104838;1255;59874;-59
2024/02/20 05:34:50;;;;;;;3.30;2.90;;;;;;;5.02;50.02;100335.77;105854;1254;59997;-59
2024/02/20 05:37:30;;;;;;;3.10;2.80;;;;;;;4.95;50.36;100339.66;105020;1257;72370;-59
2024/02/20 05:40:48;;;;;;;3.40;2.80;;;;;;;4.92;50.14;100339.51;104630;1259;68224;-61
2024/02/20 05:44:06;;;;;;;3.40;3.10;;;;;;;4.95;50.23;100342.09;104823;1256;73187;-61
2024/02/20 05:46:40;;;;;;;4.80;2.90;;;;;;;4.92;50.46;100345.59;105387;1256;61407;-60
2024/02/20 05:54:20;;;;;;;3.10;2.80;;;;;;;5.08;49.71;100344.77;104462;1256;72546;-62
2024/02/20 06:01:32;;;;;;;2.70;2.40;;;;;;;5.03;49.90;100349.66;104881;1260;72483;-60
2024/02/20 06:04:12;;;;;;;3.60;3.20;;;;;;;5.03;50.08;100352.78;104505;1263;61159;-60
2024/02/20 06:07:31;;;;;;;4.60;3.10;;;;;;;4.96;50.22;100353.71;105093;1257;60432;-59
2024/02/20 06:11:00;;;;;;;3.70;3.00;;;;;;;4.98;50.01;100343.45;104636;1258;73528;-59
2024/02/20 06:14:17;;;;;;;4.90;3.20;;;;;;;4.92;50.30;100341.61;104989;1256;69601;-59
2024/02/20 06:16:57;;;;;;;3.00;2.70;;;;;;;5.03;50.33;100340.27;105050;1258;73243;-61
2024/02/20 06:19:39;;;;;;;3.10;2.80;;;;;;;5.04;49.75;100343.56;104401;1264;60607;-65
2024/02/20 06:22:06;;;;;;;4.10;3.10;;;;;;;5.10;49.72;100340.57;104412;1257;60683;-59
2024/02/20 06:24:40;;;;;;;4.40;3.10;;;;;;;5.14;49.56;100341.40;104204;1257;74233;-61
2024/02/20 06:27:59;;;;;;;3.60;2.90;;;;;;;5.13;49.28;100343.66;104129;1257;70221;-64
2024/02/20 06:30:39;;;;;;;3.20;2.90;;;;;;;5.17;48.88;100338.77;104024;1259;73573;-59
2024/02/20 06:33:29;;;;;;;3.10;2.90;;;;;;;5.13;49.06;100336.02;104464;1257;61141;-59
2024/02/20 06:36:03;;;;;;;2.70;2.50;;;;;;;5.07;48.93;100336.77;104966;1254;59753;-60
2024/02/20 06:38:43;;;;;;;2.60;2.40;;;;;;;5.04;48.98;100333.67;104842;1254;71810;-61
2024/02/20 06:41:11;;;;;;;3.70;3.00;;;;;;;5.09;48.86;100333.80;105898;1255;69730;-59
2024/02/20 06:44:09;;;;;;;3.10;2.70;;;;;;;5.16;49.00;100334.94;106365;1254;73362;-60
2024/02/20 06:46:50;;;;;;;3.30;2.70;;;;;;;5.19;48.57;100335.79;105137;1257;59678;-60
2024/02/20 06:49:17;;;;;;;2.80;2.50;;;;;;;5.23;48.59;100330.53;105527;1257;59803;-59
2024/02/20 06:52:15;;;;;;;2.90;2.60;;;;;;;5.20;48.43;100330.73;104950;1254;73629;-60
2024/02/20 06:54:55;;;;;;;2.60;2.40;;;;;;;5.28;48.22;100336.73;105065;1253;69300;-60
2024/02/20 06:57:22;;;;;;;3.30;2.50;;;;;;;5.23;48.18;100335.05;105445;1253;72901;-59
2024/02/20 07:04:54;;;;;;;2.50;2.30;;;;;;;5.22;48.34;100335.94;105174;1253;61681;-58
2024/02/20 07:08:19;;;;;;;3.00;2.70;;;;;;;5.25;48.13;100326.70;105390;1255;73385;-60
2024/02/20 07:11:44;;;;;;;2.20;2.10;;;;;;;5.30;48.06;100330.11;105132;1255;69657;-63
2024/02/20 07:18:52;;;;;;;2.10;1.90;;;;;;;5.36;47.69;100327.79;106213;1256;61056;-61
2024/02/20 07:22:16;;;;;;;2.80;2.10;;;;;;;5.44;47.69;100316.74;104929;1253;59661;-60
2024/02/20 07:34:22;;;;;;;2.70;2.30;;;;;;;5.37;47.42;100319.78;104701;1255;72922;-64
2024/02/20 07:37:35;;;;;;;3.80;2.30;;;;;;;5.28;47.33;100303.72;105046;1254;61220;-65
2024/02/20 07:40:21;;;;;;;4.10;2.80;;;;;;;5.31;47.52;100315.50;104770;1254;59854;-61
2024/02/20 07:43:39;;;;;;;4.60;2.60;;;;;;;5.36;47.59;100310.40;105108;1255;72569;-61
2024/02/20 07:46:07;;;;;;;9.10;4.70;;;;;;;5.35;47.92;100314.41;104788;1269;69876;-61
2024/02/20 07:48:35;;;;;;;3.40;2.60;;;;;;;5.33;47.28;100312.17;104739;1255;72975;-63
2024/02/20 07:51:48;;;;;;;6.60;4.20;;;;;;;5.39;47.35;100313.68;105573;1254;60782;-61
2024/02/20 07:54:31;;;;;;;4.30;3.00;;;;;;;5.40;47.52;100310.70;104780;1254;59961;-61
2024/02/20 07:57:56;;;;;;;8.30;5.00;;;;;;;5.38;48.15;100307.60;105372;1258;73478;-61
2024/02/20 08:01:19;;;;;;;11.50;5.50;;;;;;;5.27;48.65;100308.41;104321;1260;69925;-60
2024/02/20 08:04:41;;;;;;;10.40;5.60;;;;;;;5.41;47.67;100307.56;104683;1257;73308;-60
2024/02/20 08:08:07;;;;;;;5.90;3.60;;;;;;;5.41;47.43;100302.69;104436;1254;60554;-61
2024/02/20 08:10:34;;;;;;;7.00;4.70;;;;;;;5.44;47.46;100305.79;104755;1252;59997;-61
2024/02/20 08:13:04;;;;;;;7.60;5.30;;;;;;;5.45;47.31;100305.09;104686;1257;73405;-61
2024/02/20 08:16:02;;;;;;;4.70;3.70;;;;;;;5.49;47.54;100306.78;104296;1258;70266;-62
2024/02/20 08:19:27;;;;;;;4.70;2.90;;;;;;;5.61;47.45;100311.52;104426;1257;72559;-62
2024/02/20 08:22:34;;;;;;;3.10;2.80;;;;;;;5.59;47.41;100310.83;105015;1266;60982;-62
2024/02/20 08:25:16;;;;;;;3.80;2.70;;;;;;;5.55;47.58;100305.32;105304;1255;60902;-60
2024/02/20 08:28:40;;;;;;;4.50;2.90;;;;;;;5.59;47.52;100307.36;104986;1253;73739;-61
2024/02/20 08:31:23;;;;;;;2.60;2.40;;;;;;;5.53;47.41;100310.91;104373;1271;69563;-62
2024/02/20 08:34:48;;;;;;;2.90;2.50;;;;;;;5.43;47.65;100301.29;104591;1254;71578;-61
2024/02/20 08:38:07;;;;;;;2.70;2.00;;;;;;;5.42;47.66;100302.52;105486;1253;61504;-59
2024/02/20 08:41:16;;;;;;;2.70;2.50;;;;;;;5.38;47.62;100295.42;105531;1253;60619;-60
2024/02/20 08:44:41;;;;;;;2.30;2.10;;;;;;;5.34;48.07;100294.61;105246;1254;74186;-59
2024/02/20 08:52:15;;;;;;;2.90;2.30;;;;;;;5.22;48.16;100286.73;104626;1257;73146;-58
2024/02/20 08:55:30;;;;;;;3.70;2.70;;;;;;;6.07;46.95;100293.74;104729;1254;60841;-58
2024/02/20 08:58:10;;;;;;;2.90;2.60;;;;;;;6.15;46.13;100293.09;105386;1257;60834;-58
2024/02/20 09:01:00;;;;;;;3.40;2.50;;;;;;;6.16;46.31;100292.91;104338;1262;73737;-59
2024/02/20 09:04:28;;;;;;;4.40;2.70;;;;;;;6.28;45.91;100289.95;104857;1254;69678;-58
2024/02/20 09:10:38;;;;;;;;;;;;;;;6.32;45.02;100288.50;104776;1256;61036;-59
2024/02/20 09:17:42;;;;;;;5.70;3.20;;;;;;;6.33;45.16;100295.63;104957;1253;73894;-59
2024/02/20 09:20:21;;;;;;;4.70;3.80;;;;;;;6.18;45.42;100291.84;105030;1255;70027;-58
2024/02/20 09:23:48;;;;;;;4.90;3.40;;;;;;;6.26;45.65;100285.45;105606;1254;73102;-59
2024/02/20 09:32:08;;;;;;;4.00;3.40;;;;;;;6.58;45.30;100282.18;104539;1253;61675;-59
2024/02/20 09:34:52;;;;;;;4.00;3.30;;;;;;;6.60;45.08;100278.83;104720;1269;74485;-59
2024/02/20 09:37:20;;;;;;;5.10;3.30;;;;;;;6.64;44.89;100276.67;104959;1253;70853;-58
2024/02/20 09:40:38;;;;;;;3.50;3.00;;;;;;;6.60;44.69;100274.64;104972;1254;72881;-59
2024/02/20 09:43:18;;;;;;;3.90;3.10;;;;;;;6.55;46.92;100274.38;104667;1254;60995;-59
2024/02/20 09:46:29;;;;;;;2.90;2.60;;;;;;;6.56;45.23;100266.55;104682;1253;61364;-58
2024/02/20 09:49:10;;;;;;;4.20;2.60;;;;;;;6.66;44.89;100268.98;104343;1254;75121;-59
2024/02/20 09:52:29;;;;;;;3.20;2.90;;;;;;;6.62;45.12;100262.77;104801;1258;69482;-58
2024/02/20 09:56:00;;;;;;;5.50;3.10;;;;;;;6.77;45.15;100263.20;104638;1255;73357;-59
2024/02/20 09:59:18;;;;;;;3.00;2.70;;;;;;;6.74;45.26;100266.58;105192;1256;60965;-59
2024/02/20 10:07:38;;;;;;;2.70;2.50;;;;;;;6.56;46.61;100259.21;106149;1253;75315;-60
2024/02/20 10:10:55;;;;;;;3.00;2.70;;;;;;;6.52;46.94;100253.53;104330;1257;68741;-59
2024/02/20 10:13:59;;;;;;;;;;;;;;;6.44;47.42;100256.09;105181;1253;72799;-59
2024/02/20 10:17:12;;;;;;;4.20;3.40;;;;;;;6.38;47.89;100251.31;105071;1254;61170;-60
2024/02/20 10:19:52;;;;;;;3.00;2.70;;;;;;;6.46;47.80;100251.19;104931;1255;60599;-61
2024/02/20 10:23:15;;;;;;;5.40;3.30;;;;;;;6.40;47.68;100250.40;105235;1257;73929;-60
2024/02/20 10:25:57;;;;;;;3.50;3.20;;;;;;;6.29;48.93;100235.27;105280;1255;69624;-60
2024/02/20 10:29:22;;;;;;;3.60;3.30;;;;;;;6.36;48.44;100244.91;104895;1253;73360;-60
2024/02/20 10:32:02;;;;;;;3.50;3.20;;;;;;;6.40;48.31;100242.41;104522;1253;60995;-60
2024/02/20 10:34:30;;;;;;;4.70;3.70;;;;;;;6.40;48.18;100237.19;104946;1255;60539;-61
2024/02/20 10:37:48;;;;;;;4.30;3.90;;;;;;;6.35;48.37;100231.35;105149;1254;73942;-57
2024/02/20 10:40:29;;;;;;;3.90;3.50;;;;;;;6.34;48.38;100217.42;104818;1257;69286;-59
2024/02/20 10:43:38;;;;;;;4.60;4.20;;;;;;;6.41;48.50;100230.20;104564;1255;72429;-60
2024/02/20 10:46:05;;;;;;;4.20;3.80;;;;;;;6.45;53.29;100226.65;104631;1254;61570;-60
2024/02/20 10:48:48;;;;;;;6.00;4.30;;;;;;;6.49;53.43;100221.19;104818;1254;61075;-59
2024/02/20 10:51:43;;;;;;;4.30;3.90;;;;;;;6.49;49.18;100220.14;105095;1253;72536;-59
2024/02/20 10:54:25;;;;;;;4.30;3.80;;;;;;;6.49;52.51;100221.19;104907;1253;70284;-59
2024/02/20 10:57:52;;;;;;;4.80;4.30;;;;;;;6.56;49.13;100224.72;104696;1254;72847;-58
2024/02/20 11:00:33;;;;;;;4.90;4.50;;;;;;;7.77;49.77;100218.42;105559;1253;61739;-58
2024/02/20 11:03:54;;;;;;;6.10;4.30;;;;;;;7.52;47.46;100216.97;105343;1254;60567;-59
2024/02/20 11:06:42;;;;;;;4.90;4.40;;;;;;;7.37;47.59;100220.94;105753;1255;74921;-58
2024/02/20 11:10:05;;;;;;;6.00;4.60;;;;;;;7.33;47.35;100219.29;105324;1254;69762;-58
2024/02/20 11:12:46;;;;;;;4.80;4.40;;;;;;;7.33;47.14;100212.48;104630;1254;71488;-58
2024/02/20 11:15:20;;;;;;;5.30;4.60;;;;;;;7.32;47.31;100212.34;104738;1253;61058;-57
2024/02/20 11:18:16;;;;;;;4.80;4.20;;;;;;;7.28;47.09;100215.20;105464;1253;60572;-57
2024/02/20 11:20:59;;;;;;;5.10;4.70;;;;;;;7.25;47.19;100210.89;105467;1254;73914;-57
2024/02/20 11:24:19;;;;;;;5.80;5.30;;;;;;;7.26;48.08;100210.16;105416;1254;69440;-60
2024/02/20 11:27:03;;;;;;;5.60;5.00;;;;;;;7.20;49.66;100208.56;105367;1253;72471;-60
2024/02/20 11:30:21;;;;;;;5.70;5.20;;;;;;;7.08;50.41;100201.99;104539;1253;60492;-60
2024/02/20 11:33:10;;;;;;;5.50;5.10;;;;;;;6.93;54.63;100203.85;104882;1258;60537;-60
2024/02/20 11:35:44;;;;;;;5.70;5.20;;;;;;;6.94;52.75;100201.38;104328;1271;74119;-60
2024/02/20 11:39:03;;;;;;;6.30;5.80;;;;;;;6.92;52.46;100198.98;105143;1259;70526;-59
2024/02/20 11:42:29;;;;;;;5.80;5.30;;;;;;;6.87;56.80;100194.02;104664;1256;73064;-61
2024/02/20 11:45:20;;;;;;;8.10;5.90;;;;;;;6.68;86.42;100180.45;105514;1254;61316;-61
2024/02/20 11:48:43;;;;;;;7.30;6.60;;;;;;;6.90;74.96;100187.00;105108;1254;60695;-61
2024/02/20 11:51:10;;;;;;;8.20;7.30;;;;;;;7.01;63.61;100185.05;104878;1257;73826;-59
2024/02/20 11:53:51;;;;;;;6.80;6.20;;;;;;;7.02;58.15;100184.33;104514;1258;69813;-60
2024/02/20 11:57:11;;;;;;;6.50;5.90;;;;;;;6.95;56.57;100173.66;104420;1260;72792;-61
2024/02/20 11:59:50;;;;;;;6.00;5.50;;;;;;;6.94;56.13;100174.91;104722;1252;60650;-60
2024/02/20 12:02:18;;;;;;;7.00;6.40;;;;;;;6.97;58.08;100170.48;104323;1253;60533;-60
2024/02/20 12:05:43;;;;;;;16.40;14.70;;;;;;;6.92;57.80;100163.77;104601;1258;74396;-63
2024/02/20 12:08:58;;;;;;;7.90;7.10;;;;;;;6.96;59.18;100171.91;104898;1253;69382;-59
2024/02/20 12:17:16;;;;;;;19.40;14.00;;;;;;;6.99;67.63;100168.19;105486;1253;61725;-66
2024/02/20 12:20:09;;;;;;;10.20;8.40;;;;;;;7.06;61.83;100162.98;104865;1256;61200;-60
2024/02/20 12:23:24;;;;;;;12.50;11.10;;;;;;;7.13;61.46;100158.83;104546;1262;73678;-60
2024/02/20 12:26:08;;;;;;;8.90;8.10;;;;;;;7.12;59.53;100152.92;104801;1253;70404;-67
2024/02/20 12:28:35;;;;;;;8.20;7.40;;;;;;;7.09;58.28;100151.77;104587;1268;73194;-61
2024/02/20 12:31:35;;;;;;;22.00;19.70;;;;;;;7.09;58.76;100148.30;104790;1259;61904;-61
2024/02/20 12:34:17;;;;;;;15.00;11.10;;;;;;;7.28;58.00;100149.11;104761;1255;61477;-61
2024/02/20 12:37:37;;;;;;;22.20;13.40;;;;;;;7.36;58.44;100147.52;105201;1259;74318;-60
2024/02/20 12:40:18;;;;;;;11.40;10.10;;;;;;;7.34;56.84;100141.14;104879;1257;70232;-59
2024/02/20 12:43:42;;;;;;;9.90;8.90;;;;;;;7.40;56.84;100139.24;104191;1254;73790;-60
2024/02/20 12:46:09;;;;;;;8.70;7.90;;;;;;;7.40;56.71;100139.96;105037;1253;60899;-59
2024/02/20 12:48:55;;;;;;;10.00;9.00;;;;;;;7.48;56.28;100137.87;104872;1256;60413;-59
2024/02/20 12:51:53;;;;;;;8.20;7.40;;;;;;;7.44;56.21;100132.02;105018;1258;74298;-58
2024/02/20 12:54:20;;;;;;;10.20;9.20;;;;;;;7.47;58.42;100133.00;105881;1257;70157;-59
2024/02/20 12:57:47;;;;;;;8.80;7.90;;;;;;;7.47;56.15;100124.80;104940;1256;73538;-59
2024/02/20 13:00:18;;;;;;;11.90;10.60;;;;;;;7.39;55.63;100125.51;104470;1271;61120;-56
2024/02/20 13:02:59;;;;;;;8.90;8.00;;;;;;;7.31;55.71;100123.22;104754;1271;60465;-58
2024/02/20 13:06:01;;;;;;;12.00;8.90;;;;;;;7.37;55.66;100121.18;104402;1276;73894;-56
2024/02/20 13:08:44;;;;;;;23.20;15.30;;;;;;;7.43;55.45;100120.02;104641;1258;70059;-56
2024/02/20 13:12:05;;;;;;;18.00;10.40;;;;;;;7.38;55.33;100120.80;104607;1253;73488;-56
2024/02/20 13:14:47;;;;;;;41.20;22.70;;;;;;;7.39;55.19;100123.58;105437;1253;61514;-58
2024/02/20 13:18:11;;;;;;;30.40;16.20;;;;;;;7.36;54.88;100126.44;105123;1256;60555;-56
2024/02/20 13:20:51;;;;;;;26.90;14.60;;;;;;;7.42;55.53;100128.56;104749;1253;74581;-57
2024/02/20 13:24:16;;;;;;;18.90;11.60;;;;;;;7.44;54.82;100124.51;105056;1259;69458;-57
2024/02/20 13:26:53;;;;;;;19.70;12.10;;;;;;;7.45;54.47;100122.23;104614;1253;72620;-59
2024/02/20 13:29:32;;;;;;;17.90;11.40;;;;;;;7.45;54.48;100119.45;104871;1254;61639;-57
2024/02/20 13:32:05;;;;;;;12.20;9.50;;;;;;;7.36;55.39;100121.90;104884;1252;60453;-57
2024/02/20 13:36:09;;;;;;;14.60;11.50;;;;;;;7.32;55.12;100115.20;104354;1257;73697;-58
2024/02/20 13:43:57;;;;;;;13.00;10.10;;;;;;;7.35;55.34;100111.97;104709;1258;73025;-56
2024/02/20 13:46:50;;;;;;;12.60;9.90;;;;;;;7.34;56.50;100112.34;104648;1257;60825;-56
2024/02/20 13:49:33;;;;;;;10.30;9.20;;;;;;;7.33;56.21;100110.98;104445;1263;60474;-56
2024/02/20 13:52:00;;;;;;;8.60;7.80;;;;;;;7.35;56.11;100112.50;104376;1269;74460;-55
2024/02/20 13:54:56;;;;;;;9.30;8.40;;;;;;;7.34;56.28;100113.75;104363;1257;68542;-57
2024/02/20 13:57:36;;;;;;;18.70;11.80;;;;;;;7.34;56.38;100113.75;104423;1269;71874;-58
2024/02/20 14:00:32;;;;;;;12.90;9.70;;;;;;;7.29;61.94;100119.61;105759;1256;61553;-59
2024/02/20 14:03:59;;;;;;;11.70;10.10;;;;;;;7.29;58.56;100113.70;104520;1258;60451;-58
2024/02/20 14:07:04;;;;;;;12.80;10.00;;;;;;;7.29;59.83;100112.45;104318;1268;74931;-59
2024/02/20 14:09:45;;;;;;;10.50;9.40;;;;;;;7.30;58.49;100109.84;104452;1268;69994;-57
2024/02/20 14:13:09;;;;;;;9.60;8.60;;;;;;;7.30;58.19;100106.15;104787;1253;72341;-57
2024/02/20 14:15:37;;;;;;;11.20;9.10;;;;;;;7.30;58.51;100104.24;104430;1253;61130;-58
2024/02/20 14:18:16;;;;;;;11.20;9.30;;;;;;;7.23;59.26;100108.77;105094;1254;60574;-57
2024/02/20 14:21:03;;;;;;;10.70;9.50;;;;;;;7.25;58.36;100105.05;105071;1253;75645;-59
2024/02/20 14:23:46;;;;;;;15.20;9.80;;;;;;;7.25;58.60;100103.14;104970;1256;70100;-56
2024/02/20 14:27:10;;;;;;;20.10;12.30;;;;;;;7.26;58.64;100102.06;104908;1256;72582;-58
2024/02/20 14:30:34;;;;;;;13.30;10.80;;;;;;;7.20;58.37;100099.92;104533;1257;61592;-60
2024/02/20 14:34:01;;;;;;;11.30;10.10;;;;;;;7.19;59.23;100094.37;104458;1257;61149;-58
2024/02/20 14:37:26;;;;;;;14.50;11.50;;;;;;;7.32;59.29;100094.62;104397;1276;73804;-58
2024/02/20 14:40:07;;;;;;;16.30;12.20;;;;;;;7.35;58.45;100100.30;104552;1257;70522;-59
2024/02/20 14:43:32;;;;;;;14.20;11.40;;;;;;;7.31;58.39;100102.83;104578;1253;72092;-58
2024/02/20 14:46:13;;;;;;;11.50;9.90;;;;;;;7.33;59.22;100101.73;105004;1254;61435;-58
2024/02/20 14:48:50;;;;;;;11.60;10.30;;;;;;;7.34;59.06;100094.58;105033;1255;61054;-58
2024/02/20 14:52:08;;;;;;;12.10;10.80;;;;;;;7.26;59.43;100093.36;104740;1255;73906;-57
2024/02/20 14:54:49;;;;;;;10.40;9.40;;;;;;;7.15;60.00;100090.27;104481;1260;69753;-58
2024/02/20 14:57:47;;;;;;;13.50;11.20;;;;;;;7.16;59.86;100092.17;104576;1257;73177;-56
2024/02/20 15:00:27;;;;;;;15.00;11.20;;;;;;;7.12;59.81;100088.60;105238;1253;61108;-57
2024/02/20 15:02:54;;;;;;;12.70;10.20;;;;;;;7.15;59.88;100087.30;104635;1259;60485;-58
2024/02/20 15:05:58;;;;;;;13.10;11.10;;;;;;;7.24;59.65;100089.02;104586;1265;72952;-59
2024/02/20 15:08:38;;;;;;;14.30;11.30;;;;;;;7.33;59.65;100086.40;104622;1256;69470;-61
2024/02/20 15:11:05;;;;;;;12.10;10.90;;;;;;;7.33;59.26;100085.70;104799;1256;72739;-59
2024/02/20 15:14:23;;;;;;;11.00;9.60;;;;;;;7.29;59.62;100086.13;104900;1254;61111;-60
2024/02/20 15:20:46;;;;;;;15.70;12.50;;;;;;;6.49;68.17;100083.36;101425;1296;616695;-60
2024/02/20 15:23:15;;;;;;;11.80;10.50;;;;;;;7.38;61.41;100081.21;103925;1266;60256;-59